createdAt,value
2022-09-09T00:02:24.829Z,1.50
2022-09-09T00:07:40.436Z,1.45
2022-09-09T00:12:56.960Z,1.40
2022-09-09T00:18:10.292Z,1.50
2022-09-09T00:23:21.532Z,1.55
2022-09-09T00:28:31.082Z,1.90
2022-09-09T00:33:34.870Z,1.60
2022-09-09T00:38:42.380Z,1.60
2022-09-09T00:43:57.897Z,1.90
2022-09-09T00:49:11.323Z,2.17
2022-09-09T00:54:30.025Z,1.70
2022-09-09T00:59:47.876Z,1.70
2022-09-09T01:04:51.552Z,1.85
2022-09-09T01:09:59.137Z,1.87
2022-09-09T01:15:12.849Z,2.20
2022-09-09T01:20:23.379Z,2.33
2022-09-09T01:31:01.041Z,2.15
2022-09-09T01:36:11.927Z,2.40
2022-09-09T01:41:16.276Z,2.22
2022-09-09T01:46:24.341Z,3.40
2022-09-09T01:51:28.857Z,1.90
2022-09-09T01:56:45.213Z,1.92
2022-09-09T02:02:06.081Z,2.08
2022-09-09T02:07:24.498Z,2.50
2022-09-09T02:12:31.327Z,2.28
2022-09-09T02:17:40.748Z,2.30
2022-09-09T02:22:48.710Z,2.30
2022-09-09T02:33:02.475Z,2.00
2022-09-09T02:38:12.836Z,2.97
2022-09-09T02:43:18.401Z,2.78
2022-09-09T02:48:32.455Z,2.53
2022-09-09T02:53:45.519Z,3.03
2022-09-09T02:58:52.846Z,3.33
2022-09-09T03:03:58.255Z,2.20
2022-09-09T03:09:03.488Z,2.28
2022-09-09T03:14:07.492Z,2.70
2022-09-09T03:19:14.555Z,2.50
2022-09-09T03:24:18.536Z,2.37
2022-09-09T03:29:22.641Z,2.75
2022-09-09T03:34:30.075Z,2.70
2022-09-09T03:39:34.776Z,2.45
2022-09-09T03:44:38.536Z,2.65
2022-09-09T03:49:44.400Z,2.78
2022-09-09T03:54:48.910Z,3.35
2022-09-09T03:59:52.987Z,4.12
2022-09-09T04:04:58.100Z,3.78
2022-09-09T04:10:01.866Z,2.70
2022-09-09T04:15:07.790Z,3.70
2022-09-09T04:20:13.705Z,3.80
2022-09-09T04:25:17.871Z,3.78
2022-09-09T04:30:21.965Z,3.40
2022-09-09T04:35:28.208Z,3.03
2022-09-09T04:40:34.116Z,3.28
2022-09-09T04:45:38.897Z,3.35
2022-09-09T04:50:44.527Z,3.22
2022-09-09T04:55:48.629Z,2.87
2022-09-09T05:00:53.448Z,3.47
2022-09-09T05:06:06.949Z,3.28
2022-09-09T05:11:18.459Z,2.78
2022-09-09T05:16:24.097Z,2.80
2022-09-09T05:21:31.359Z,2.70
2022-09-09T05:26:35.101Z,3.40
2022-09-09T05:31:40.354Z,2.62
2022-09-09T05:36:47.922Z,2.92
2022-09-09T05:41:52.369Z,3.78
2022-09-09T05:46:56.853Z,2.60
2022-09-09T05:52:04.224Z,2.80
2022-09-09T05:57:08.284Z,2.75
2022-09-09T06:02:13.424Z,2.33
2022-09-09T06:07:18.905Z,3.40
2022-09-09T06:12:22.875Z,3.03
2022-09-09T06:17:26.899Z,2.03
2022-09-09T06:22:32.506Z,2.50
2022-09-09T06:27:36.919Z,2.87
2022-09-09T06:32:41.565Z,2.50
2022-09-09T06:37:49.964Z,2.00
2022-09-09T06:43:01.390Z,2.37
2022-09-09T06:48:08.702Z,2.80
2022-09-09T06:53:14.374Z,2.72
2022-09-09T06:58:18.522Z,2.87
2022-09-09T07:03:22.242Z,3.65
2022-09-09T07:08:27.992Z,3.34
2022-09-09T07:13:32.297Z,2.22
2022-09-09T07:18:37.990Z,2.20
2022-09-09T07:23:43.736Z,2.72
2022-09-09T07:28:49.210Z,2.35
2022-09-09T07:33:53.645Z,3.25
2022-09-09T07:39:01.243Z,2.50
2022-09-09T07:44:07.619Z,2.58
2022-09-09T07:49:13.542Z,1.90
2022-09-09T07:54:21.559Z,2.85
2022-09-09T07:59:26.139Z,2.65
2022-09-09T08:04:30.448Z,2.30
2022-09-09T08:09:35.684Z,2.78
2022-09-09T08:14:40.068Z,2.72
2022-09-09T08:19:43.909Z,2.42
2022-09-09T08:24:49.664Z,2.62
2022-09-09T08:29:54.706Z,2.37
2022-09-09T08:35:01.261Z,2.10
2022-09-09T08:40:18.693Z,2.07
2022-09-09T08:45:36.524Z,1.83
2022-09-09T08:50:42.224Z,1.90
2022-09-09T08:55:50.424Z,1.92
2022-09-09T09:06:29.121Z,2.53
2022-09-09T09:11:40.866Z,2.20
2022-09-09T09:16:52.340Z,1.90
2022-09-09T09:22:04.679Z,2.35
2022-09-09T09:27:15.043Z,2.05
2022-09-09T09:32:23.743Z,3.10
2022-09-09T09:37:31.456Z,2.62
2022-09-09T09:42:37.639Z,2.73
2022-09-09T09:47:41.724Z,3.12
2022-09-09T09:52:56.720Z,2.67
2022-09-09T09:58:06.861Z,2.72
2022-09-09T10:03:23.747Z,2.25
2022-09-09T10:08:29.197Z,2.12
2022-09-09T10:13:44.543Z,2.58
2022-09-09T10:19:00.705Z,2.80
2022-09-09T10:24:28.525Z,2.40
2022-09-09T10:29:52.458Z,2.20
2022-09-09T10:35:00.118Z,2.08
2022-09-09T10:40:19.220Z,2.30
2022-09-09T10:45:35.703Z,2.35
2022-09-09T10:51:01.117Z,2.22
2022-09-09T10:56:11.443Z,2.87
2022-09-09T11:01:21.088Z,2.22
2022-09-09T11:06:30.999Z,2.40
2022-09-09T11:11:39.107Z,2.17
2022-09-09T11:16:50.629Z,2.42
2022-09-09T11:21:55.808Z,2.80
2022-09-09T11:27:05.092Z,2.60
2022-09-09T11:32:29.618Z,2.30
2022-09-09T11:37:56.099Z,2.28
2022-09-09T11:43:06.926Z,2.22
2022-09-09T11:48:27.365Z,1.90
2022-09-09T11:53:31.351Z,1.98
2022-09-09T11:58:41.840Z,2.47
2022-09-09T12:03:50.954Z,1.92
2022-09-09T12:08:59.653Z,2.47
2022-09-09T12:14:03.331Z,2.60
2022-09-09T12:19:17.707Z,2.30
2022-09-09T12:24:29.670Z,2.78
2022-09-09T12:29:43.227Z,1.95
2022-09-09T12:34:52.582Z,1.98
2022-09-09T12:39:58.747Z,2.08
2022-09-09T12:45:05.198Z,1.90
2022-09-09T12:50:22.145Z,1.52
2022-09-09T12:55:31.102Z,1.45
2022-09-09T13:00:36.005Z,1.83
2022-09-09T13:05:44.198Z,1.30
2022-09-09T13:16:00.918Z,1.62
2022-09-09T13:21:06.320Z,1.50
2022-09-09T13:26:23.738Z,1.12
2022-09-09T13:31:32.764Z,0.77
2022-09-09T13:36:37.842Z,1.00
2022-09-09T13:41:45.930Z,1.62
2022-09-09T13:46:49.746Z,1.20
2022-09-09T13:52:06.357Z,0.95
2022-09-09T13:57:19.201Z,1.00
2022-09-09T14:02:24.180Z,0.70
2022-09-09T14:07:29.429Z,1.20
2022-09-09T14:12:33.186Z,0.70
2022-09-09T14:17:37.228Z,1.37
2022-09-09T14:22:42.257Z,0.70
2022-09-09T14:27:47.002Z,1.17
2022-09-09T14:32:50.690Z,1.80
2022-09-09T14:37:56.120Z,1.20
2022-09-09T14:43:00.367Z,1.10
2022-09-09T14:48:05.520Z,1.95
2022-09-09T14:53:11.556Z,1.50
2022-09-09T14:58:15.505Z,1.48
2022-09-09T15:03:19.262Z,2.47
2022-09-09T15:08:24.623Z,2.22
2022-09-09T15:13:28.390Z,1.17
2022-09-09T15:18:32.079Z,1.20
2022-09-09T15:23:38.443Z,1.00
2022-09-09T15:28:44.607Z,0.95
2022-09-09T15:33:51.976Z,0.82
2022-09-09T15:38:57.481Z,1.20
2022-09-09T15:44:02.495Z,1.20
2022-09-09T15:49:10.139Z,1.40
2022-09-09T15:54:18.435Z,2.00
2022-09-09T16:04:26.424Z,1.75
2022-09-09T16:09:32.808Z,1.85
2022-09-09T16:14:36.873Z,2.42
2022-09-09T16:19:40.705Z,2.67
2022-09-09T16:24:46.298Z,1.48
2022-09-09T16:29:50.225Z,1.75
2022-09-09T16:34:54.015Z,2.33
2022-09-09T16:39:59.618Z,2.00
2022-09-09T16:45:03.432Z,2.20
2022-09-09T16:50:08.091Z,1.75
2022-09-09T16:55:13.318Z,2.00
2022-09-09T17:00:18.499Z,1.77
2022-09-09T17:05:22.251Z,1.67
2022-09-09T17:10:27.712Z,1.70
2022-09-09T17:15:31.618Z,1.65
2022-09-09T17:20:46.505Z,1.98
2022-09-09T17:25:59.856Z,2.22
2022-09-09T17:31:05.660Z,2.10
2022-09-09T17:36:12.306Z,1.92
2022-09-09T17:41:19.353Z,2.00
2022-09-09T17:46:24.928Z,2.30
2022-09-09T17:51:31.134Z,2.17
2022-09-09T17:56:36.792Z,2.60
2022-09-09T18:01:42.262Z,2.65
2022-09-09T18:06:48.078Z,2.62
2022-09-09T18:11:55.376Z,4.00
2022-09-09T18:17:00.272Z,3.58
2022-09-09T18:22:06.853Z,4.37
2022-09-09T18:27:12.097Z,5.00
2022-09-09T18:32:17.075Z,4.30
2022-09-09T18:37:20.753Z,3.50
2022-09-09T18:42:26.619Z,4.55
2022-09-09T18:47:30.327Z,4.53
2022-09-09T18:52:34.011Z,5.50
2022-09-09T18:57:39.283Z,5.10
2022-09-09T19:02:43.586Z,6.00
2022-09-09T19:07:47.349Z,5.47
2022-09-09T19:12:52.584Z,5.32
2022-09-09T19:17:56.717Z,5.10
2022-09-09T19:23:00.739Z,5.45
2022-09-09T19:28:07.416Z,5.50
2022-09-09T19:33:11.226Z,5.12
2022-09-09T19:38:14.955Z,4.50
2022-09-09T19:43:20.625Z,5.82
2022-09-09T19:48:25.025Z,5.03
2022-09-09T19:53:28.754Z,6.22
2022-09-09T19:58:35.332Z,6.20
2022-09-09T20:03:40.003Z,7.05
2022-09-09T20:08:47.238Z,5.70
2022-09-09T20:13:52.601Z,6.62
2022-09-09T20:18:58.600Z,7.50
2022-09-09T20:24:04.611Z,7.60
2022-09-09T20:29:15.753Z,7.32
2022-09-09T20:34:22.844Z,7.32
2022-09-09T20:39:27.789Z,6.62
2022-09-09T20:44:33.119Z,6.47
2022-09-09T20:49:37.012Z,5.60
2022-09-09T20:54:41.682Z,4.82
2022-09-09T20:59:48.333Z,5.07
2022-09-09T21:04:52.167Z,4.82
2022-09-09T21:09:57.375Z,4.30
2022-09-09T21:15:02.776Z,4.45
2022-09-09T21:20:07.777Z,4.75
2022-09-09T21:25:11.730Z,4.78
2022-09-09T21:30:16.837Z,4.87
2022-09-09T21:35:21.502Z,3.87
2022-09-09T21:40:26.296Z,3.47
2022-09-09T21:45:31.601Z,3.33
2022-09-09T21:50:37.434Z,4.75
2022-09-09T21:55:42.411Z,3.15
2022-09-09T22:00:48.426Z,2.83
2022-09-09T22:05:54.116Z,2.65
2022-09-09T22:10:57.916Z,2.60
2022-09-09T22:16:03.557Z,2.72
2022-09-09T22:21:08.703Z,2.90
2022-09-09T22:26:12.607Z,2.65
2022-09-09T22:31:17.728Z,2.70
2022-09-09T22:36:21.943Z,3.15
2022-09-09T22:41:26.386Z,3.33
2022-09-09T22:46:31.506Z,3.60
2022-09-09T22:51:35.279Z,3.40
2022-09-09T22:56:38.982Z,3.03
2022-09-09T23:01:44.598Z,3.35
2022-09-09T23:06:48.273Z,3.80
2022-09-09T23:11:52.035Z,4.30
2022-09-09T23:16:57.067Z,3.42
2022-09-09T23:22:01.702Z,3.50
2022-09-09T23:27:05.668Z,4.20
2022-09-09T23:32:10.714Z,5.45
2022-09-09T23:37:14.811Z,4.35
2022-09-09T23:42:18.631Z,5.45
2022-09-09T23:47:23.769Z,4.97
2022-09-09T23:52:27.598Z,5.72
2022-09-09T23:57:31.241Z,5.90
